createdAt,value
2024-02-08T06:01:36.360Z,50.00
2024-02-08T06:02:09.317Z,50.00
2024-02-08T06:03:09.256Z,50.00
2024-02-08T06:04:09.295Z,50.00
2024-02-08T06:05:09.298Z,50.00
2024-02-08T06:06:09.330Z,50.00
2024-02-08T06:07:09.847Z,33.37
2024-02-08T06:08:09.390Z,12.32
2024-02-08T06:09:09.327Z,0.00
2024-02-08T06:10:09.717Z,0.00
2024-02-08T06:11:09.267Z,0.00
2024-02-08T06:12:09.458Z,0.00
2024-02-08T06:13:09.350Z,0.00
2024-02-08T06:14:09.269Z,0.00
2024-02-08T06:15:09.268Z,0.00
2024-02-08T06:16:09.461Z,0.00
2024-02-08T06:17:09.293Z,1.82
2024-02-08T06:18:09.330Z,9.99
2024-02-08T06:19:09.428Z,23.55
2024-02-08T06:20:09.326Z,33.28
2024-02-08T06:21:09.267Z,45.81
2024-02-08T06:22:09.328Z,50.14
2024-02-08T06:23:09.280Z,50.21
2024-02-08T06:24:09.273Z,49.53
2024-02-08T06:25:09.363Z,50.40
2024-02-08T06:26:09.778Z,50.00
2024-02-08T06:27:09.326Z,49.95
2024-02-08T06:28:09.354Z,50.00
2024-02-08T06:29:09.311Z,49.86
2024-02-08T06:30:09.423Z,50.12
2024-02-08T06:31:09.423Z,50.61
2024-02-08T06:32:09.338Z,50.94
2024-02-08T06:33:09.995Z,53.32
2024-02-08T06:34:09.461Z,53.15
2024-02-08T06:35:09.377Z,50.80
2024-02-08T06:36:09.300Z,51.51
2024-02-08T06:37:09.337Z,50.00
2024-02-08T06:38:09.329Z,50.00
2024-02-08T06:39:09.358Z,50.00
2024-02-08T06:40:09.421Z,50.00
2024-02-08T06:41:09.325Z,50.00
2024-02-08T06:42:09.334Z,50.00
2024-02-08T06:43:09.408Z,53.61
2024-02-08T06:44:09.355Z,52.45
2024-02-08T06:45:09.310Z,51.93
2024-02-08T06:46:09.366Z,52.77
2024-02-08T06:47:09.331Z,50.11
2024-02-08T06:48:09.426Z,50.00
2024-02-08T06:49:09.412Z,52.62
2024-02-08T06:50:09.374Z,51.89
2024-02-08T06:51:09.408Z,51.79
2024-02-08T06:52:09.350Z,50.99
2024-02-08T06:53:09.353Z,51.51
2024-02-08T06:54:09.350Z,52.24
2024-02-08T06:55:09.374Z,50.00
2024-02-08T06:56:09.358Z,52.63
2024-02-08T06:57:09.332Z,52.23
2024-02-08T06:58:09.395Z,50.12
2024-02-08T06:59:09.410Z,51.46
2024-02-08T07:00:09.468Z,51.37
2024-02-08T07:01:09.509Z,50.80
2024-02-08T07:02:09.416Z,51.29
2024-02-08T07:03:09.578Z,49.59
2024-02-08T07:04:09.563Z,50.00
2024-02-08T07:05:12.878Z,52.20
2024-02-08T07:06:09.555Z,48.55
2024-02-08T07:07:09.431Z,45.99
2024-02-08T07:08:09.497Z,47.95
2024-02-08T07:09:09.399Z,49.60
2024-02-08T07:10:09.466Z,47.62
2024-02-08T07:11:09.377Z,51.37
2024-02-08T07:12:09.406Z,52.82
2024-02-08T07:13:09.423Z,54.34
2024-02-08T07:14:09.354Z,51.16
2024-02-08T07:15:09.391Z,52.65
2024-02-08T07:16:09.466Z,51.59
2024-02-08T07:17:09.371Z,53.56
2024-02-08T07:18:11.641Z,50.85
2024-02-08T07:19:09.894Z,50.94
2024-02-08T07:20:09.475Z,51.10
2024-02-08T07:21:09.422Z,51.57
2024-02-08T07:22:09.411Z,51.76
2024-02-08T07:23:09.380Z,52.24
2024-02-08T07:24:09.449Z,55.63
2024-02-08T07:25:09.650Z,51.89
2024-02-08T07:26:09.376Z,52.28
2024-02-08T07:27:09.421Z,52.06
2024-02-08T07:28:09.510Z,51.38
2024-02-08T07:29:09.430Z,51.25
2024-02-08T07:30:09.376Z,50.00
2024-02-08T07:31:09.420Z,50.36
2024-02-08T07:32:09.393Z,50.63
2024-02-08T07:33:09.568Z,52.03
2024-02-08T07:34:09.445Z,52.45
2024-02-08T07:35:09.675Z,52.49
2024-02-08T07:36:09.516Z,51.81
2024-02-08T07:37:09.447Z,55.68
2024-02-08T07:38:09.570Z,54.25
2024-02-08T07:39:09.635Z,56.56
2024-02-08T07:40:09.739Z,56.71
2024-02-08T07:41:09.653Z,55.63
2024-02-08T07:42:09.719Z,56.48
2024-02-08T07:43:09.872Z,57.99
2024-02-08T07:44:09.838Z,56.12
2024-02-08T07:45:09.925Z,59.37
2024-02-08T07:46:10.129Z,55.89
2024-02-08T07:47:10.042Z,58.21
2024-02-08T07:48:10.193Z,57.69
2024-02-08T07:49:10.197Z,56.45
2024-02-08T07:50:10.336Z,56.00
2024-02-08T07:51:10.205Z,57.42
2024-02-08T07:52:10.469Z,55.51
2024-02-08T07:53:10.734Z,55.15
2024-02-08T07:54:10.432Z,57.98
2024-02-08T07:55:10.602Z,57.72
2024-02-08T07:56:10.629Z,57.13
2024-02-08T07:57:10.686Z,56.80
2024-02-08T07:58:10.782Z,56.15
2024-02-08T07:59:10.771Z,55.93
2024-02-08T08:00:10.811Z,57.06
2024-02-08T08:01:10.975Z,57.62
2024-02-08T08:02:11.102Z,56.70
2024-02-08T08:03:10.962Z,58.58
2024-02-08T08:04:11.494Z,57.74
2024-02-08T08:05:11.173Z,58.64
2024-02-08T08:06:11.177Z,58.65
2024-02-08T08:07:11.508Z,59.63
2024-02-08T08:08:11.196Z,59.27
2024-02-08T08:09:11.347Z,60.01
2024-02-08T08:10:11.439Z,58.02
2024-02-08T08:11:11.351Z,58.58
2024-02-08T08:12:11.422Z,57.27
2024-02-08T08:13:11.516Z,57.39
2024-02-08T08:14:11.508Z,58.91
2024-02-08T08:15:11.593Z,58.24
2024-02-08T08:16:11.640Z,60.25
2024-02-08T08:17:11.787Z,61.51
2024-02-08T08:18:11.731Z,58.60
2024-02-08T08:19:12.366Z,60.46
2024-02-08T08:20:11.967Z,58.73
2024-02-08T08:21:11.816Z,58.40
2024-02-08T08:22:11.947Z,57.08
2024-02-08T08:23:12.000Z,58.68
2024-02-08T08:24:11.976Z,57.84
2024-02-08T08:25:13.990Z,58.09
2024-02-08T08:26:11.975Z,57.93
2024-02-08T08:27:11.985Z,55.82
2024-02-08T08:28:12.268Z,57.44
2024-02-08T08:29:11.985Z,58.30
2024-02-08T08:30:12.016Z,60.51
2024-02-08T08:31:12.006Z,60.94
2024-02-08T08:32:11.983Z,62.21
2024-02-08T08:33:12.140Z,63.08
2024-02-08T08:34:12.059Z,65.40
2024-02-08T08:35:12.117Z,65.14
2024-02-08T08:36:11.949Z,66.66
2024-02-08T08:37:12.097Z,67.29
2024-02-08T08:38:12.097Z,68.18
2024-02-08T08:39:12.105Z,69.89
2024-02-08T08:40:12.200Z,71.26
2024-02-08T08:41:12.455Z,70.79
2024-02-08T08:42:12.113Z,71.43
2024-02-08T08:43:12.190Z,72.07
2024-02-08T08:44:12.018Z,70.62
2024-02-08T08:45:12.096Z,72.69
2024-02-08T08:46:12.378Z,71.67
2024-02-08T08:47:12.036Z,71.00
2024-02-08T08:48:12.195Z,70.00
2024-02-08T08:49:12.167Z,70.81
2024-02-08T08:50:12.057Z,72.23
2024-02-08T08:51:12.689Z,72.74
2024-02-08T08:52:12.009Z,71.43
2024-02-08T08:53:12.843Z,70.16
2024-02-08T08:54:12.011Z,68.79
2024-02-08T08:55:12.248Z,69.10
2024-02-08T08:56:12.082Z,67.02
2024-02-08T08:57:12.013Z,68.88
2024-02-08T08:58:12.052Z,67.96
2024-02-08T08:59:12.072Z,68.25
2024-02-08T09:00:12.017Z,69.79
2024-02-08T09:01:12.238Z,73.08
2024-02-08T09:02:12.120Z,75.21
2024-02-08T09:03:12.030Z,76.71
2024-02-08T09:04:12.917Z,76.72
2024-02-08T09:05:12.109Z,76.54
2024-02-08T09:06:12.055Z,76.12
2024-02-08T09:07:12.906Z,73.06
2024-02-08T09:08:12.158Z,72.00
2024-02-08T09:09:19.821Z,50.00
2024-02-08T09:10:19.848Z,50.00
2024-02-08T09:11:19.775Z,50.00
2024-02-08T09:12:19.832Z,50.00
2024-02-08T09:13:19.861Z,50.00
2024-02-08T09:14:19.760Z,51.13
2024-02-08T09:15:19.803Z,60.67
2024-02-08T09:16:19.849Z,57.33
2024-02-08T09:17:24.939Z,60.08
2024-02-08T09:18:20.931Z,56.30
2024-02-08T09:19:19.838Z,60.64
2024-02-08T09:20:19.975Z,58.77
2024-02-08T09:21:19.821Z,60.56
2024-02-08T09:22:20.119Z,54.39
2024-02-08T09:23:19.813Z,55.17
2024-02-08T09:24:19.949Z,53.90
2024-02-08T09:25:27.908Z,54.56
2024-02-08T09:26:20.799Z,54.67
2024-02-08T09:27:19.838Z,54.76
2024-02-08T09:28:19.908Z,54.41
2024-02-08T09:29:19.841Z,55.47
2024-02-08T09:30:19.865Z,54.29
2024-02-08T09:31:19.997Z,51.45
2024-02-08T09:32:19.856Z,51.18
2024-02-08T09:33:19.835Z,51.15
2024-02-08T09:34:19.910Z,50.00
2024-02-08T09:35:20.005Z,52.71
2024-02-08T09:36:19.820Z,53.56
2024-02-08T09:37:19.922Z,51.67
2024-02-08T09:38:19.885Z,53.09
2024-02-08T09:39:19.842Z,53.28
2024-02-08T09:40:19.907Z,51.56
2024-02-08T09:41:19.806Z,51.26
2024-02-08T09:42:19.829Z,50.29
2024-02-08T09:43:20.117Z,52.12
2024-02-08T09:44:19.904Z,54.72
2024-02-08T09:45:20.029Z,58.43
2024-02-08T09:46:20.092Z,56.40
2024-02-08T09:47:20.075Z,54.55
2024-02-08T09:48:20.254Z,52.29
2024-02-08T09:49:20.491Z,52.17
2024-02-08T09:50:20.370Z,51.90
2024-02-08T09:51:20.336Z,50.74
2024-02-08T09:52:20.494Z,51.70
2024-02-08T09:53:42.981Z,52.51
2024-02-08T09:54:42.993Z,52.71
2024-02-08T09:55:20.521Z,52.86
2024-02-08T09:56:43.028Z,54.23
2024-02-08T09:57:20.455Z,52.95
2024-02-08T09:58:20.531Z,55.19
2024-02-08T09:59:20.528Z,58.62
2024-02-08T10:00:20.493Z,62.18
2024-02-08T10:01:20.528Z,68.99
2024-02-08T10:02:20.543Z,71.70
2024-02-08T10:03:20.505Z,70.07
2024-02-08T10:04:20.705Z,70.57
2024-02-08T10:05:20.934Z,70.61
2024-02-08T10:06:20.501Z,67.95
2024-02-08T10:07:20.512Z,67.31
2024-02-08T10:08:20.531Z,68.75
2024-02-08T10:09:20.537Z,68.80
2024-02-08T10:10:20.473Z,68.25
2024-02-08T10:11:20.520Z,68.72
2024-02-08T10:12:20.671Z,64.99
2024-02-08T10:13:20.554Z,65.41
2024-02-08T10:14:20.509Z,65.17
2024-02-08T10:15:20.489Z,65.14
2024-02-08T10:16:20.615Z,68.85
2024-02-08T10:17:20.498Z,70.10
2024-02-08T10:18:20.562Z,68.63
2024-02-08T10:19:20.636Z,70.20
2024-02-08T10:20:20.625Z,72.45
2024-02-08T10:21:20.573Z,73.35
2024-02-08T10:22:20.680Z,75.52
2024-02-08T10:23:20.669Z,78.08
2024-02-08T10:24:20.656Z,80.65
2024-02-08T10:25:20.722Z,82.69
2024-02-08T10:26:20.723Z,85.11
2024-02-08T10:27:20.853Z,85.73
2024-02-08T10:28:20.795Z,89.98
2024-02-08T10:29:20.796Z,104.18
2024-02-08T10:30:20.833Z,115.79
2024-02-08T10:31:20.869Z,119.67
2024-02-08T10:32:20.913Z,119.24
2024-02-08T10:33:21.242Z,114.78
2024-02-08T10:34:21.696Z,110.54
2024-02-08T10:35:55.542Z,102.70
2024-02-08T10:36:23.148Z,102.76
2024-02-08T10:37:21.059Z,102.76
2024-02-08T10:38:20.980Z,100.01
2024-02-08T10:39:21.121Z,89.19
2024-02-08T10:40:21.077Z,83.42
2024-02-08T10:41:21.026Z,76.29
2024-02-08T10:42:22.337Z,73.58
2024-02-08T10:43:21.072Z,71.64
2024-02-08T10:44:21.008Z,66.52
2024-02-08T10:45:21.023Z,67.38
2024-02-08T10:46:21.055Z,67.61
2024-02-08T10:47:28.899Z,68.14
2024-02-08T10:48:22.066Z,73.59
2024-02-08T10:49:21.072Z,73.68
2024-02-08T10:50:22.154Z,74.15
2024-02-08T10:51:21.023Z,76.46
2024-02-08T10:52:22.097Z,79.66
2024-02-08T10:53:21.143Z,80.82
2024-02-08T10:54:21.039Z,78.82
2024-02-08T10:55:21.804Z,78.04
2024-02-08T10:56:21.002Z,79.30
2024-02-08T10:57:21.081Z,82.05
2024-02-08T10:58:21.223Z,82.70
2024-02-08T10:59:21.143Z,83.88
2024-02-08T11:00:21.252Z,82.67
2024-02-08T11:01:21.346Z,84.55
2024-02-08T11:02:21.218Z,84.50
2024-02-08T11:03:21.331Z,85.09
2024-02-08T11:04:21.381Z,85.42
2024-02-08T11:05:21.456Z,84.38
2024-02-08T11:06:21.439Z,85.10
2024-02-08T11:07:21.444Z,88.11
2024-02-08T11:08:22.344Z,84.94
2024-02-08T11:09:21.451Z,88.48
2024-02-08T11:10:21.523Z,86.22
2024-02-08T11:11:21.563Z,87.10
2024-02-08T11:12:21.525Z,85.39
2024-02-08T11:13:21.604Z,86.50
2024-02-08T11:14:21.696Z,84.96
2024-02-08T11:15:21.703Z,86.03
2024-02-08T11:16:22.528Z,86.09
2024-02-08T11:17:22.232Z,85.09
2024-02-08T11:18:21.754Z,87.29
2024-02-08T11:19:21.901Z,88.29
2024-02-08T11:20:21.860Z,88.25
2024-02-08T11:21:21.768Z,90.69
2024-02-08T11:22:21.861Z,87.34
2024-02-08T11:23:21.792Z,86.59
2024-02-08T11:24:24.546Z,86.37
2024-02-08T11:25:22.433Z,81.93
2024-02-08T11:26:21.789Z,85.87
2024-02-08T11:27:21.786Z,81.93
2024-02-08T11:28:26.628Z,81.27
2024-02-08T11:29:22.823Z,78.26
2024-02-08T11:30:21.867Z,74.21
2024-02-08T11:31:21.855Z,70.12
2024-02-08T11:32:21.866Z,64.07
2024-02-08T11:33:21.988Z,58.57
2024-02-08T11:34:22.119Z,54.35
2024-02-08T11:35:22.266Z,52.65
2024-02-08T11:36:22.070Z,52.72
2024-02-08T11:37:22.160Z,52.10
2024-02-08T11:38:22.205Z,51.20
2024-02-08T11:39:22.330Z,49.43
2024-02-08T11:40:22.316Z,52.43
2024-02-08T11:41:22.423Z,50.26
2024-02-08T11:42:22.389Z,50.00
2024-02-08T11:43:22.572Z,50.00
2024-02-08T11:44:22.396Z,52.70
2024-02-08T11:45:22.506Z,52.41
2024-02-08T11:46:22.491Z,52.57
2024-02-08T11:47:22.510Z,52.46
2024-02-08T11:48:22.498Z,58.80
2024-02-08T11:49:22.608Z,61.24
2024-02-08T11:50:22.658Z,61.89
2024-02-08T11:51:22.542Z,62.64
2024-02-08T11:52:22.576Z,66.46
2024-02-08T11:53:22.565Z,69.32
2024-02-08T11:54:22.525Z,66.68
2024-02-08T11:55:22.806Z,71.04
2024-02-08T11:56:22.580Z,70.33
2024-02-08T11:57:22.674Z,70.94
2024-02-08T11:58:22.698Z,70.90
2024-02-08T11:59:22.656Z,66.23
2024-02-08T12:00:22.707Z,67.00
2024-02-08T12:01:22.852Z,70.49
2024-02-08T12:02:22.676Z,70.35
2024-02-08T12:03:22.732Z,72.53
2024-02-08T12:04:22.896Z,75.95
2024-02-08T12:05:22.954Z,75.93
2024-02-08T12:06:23.222Z,79.42
2024-02-08T12:07:22.782Z,80.80
2024-02-08T12:08:26.335Z,83.28
2024-02-08T12:09:24.059Z,83.37
2024-02-08T12:10:22.880Z,84.14
2024-02-08T12:11:22.741Z,86.07
2024-02-08T12:12:22.776Z,88.58
2024-02-08T12:13:22.881Z,94.02
2024-02-08T12:14:27.065Z,94.08
2024-02-08T12:15:22.758Z,94.21
2024-02-08T12:16:22.797Z,95.31
2024-02-08T12:17:22.796Z,97.64
2024-02-08T12:18:22.904Z,101.19
2024-02-08T12:19:23.023Z,106.78
2024-02-08T12:20:22.825Z,109.33
2024-02-08T12:21:22.817Z,108.08
2024-02-08T12:22:22.866Z,109.69
2024-02-08T12:23:22.834Z,111.96
2024-02-08T12:24:22.784Z,114.04
2024-02-08T12:25:22.809Z,113.84
2024-02-08T12:26:22.824Z,116.97
2024-02-08T12:27:22.889Z,117.69
2024-02-08T12:28:22.972Z,119.75
2024-02-08T12:29:22.927Z,121.35
2024-02-08T12:30:22.978Z,121.34
2024-02-08T12:31:23.101Z,120.29
2024-02-08T12:32:23.103Z,121.86
2024-02-08T12:33:23.195Z,122.42
2024-02-08T12:34:23.250Z,118.74
2024-02-08T12:35:23.349Z,115.72
2024-02-08T12:36:23.215Z,112.81
2024-02-08T12:37:23.275Z,108.24
2024-02-08T12:38:23.205Z,103.95
2024-02-08T12:39:23.259Z,102.94
2024-02-08T12:40:23.485Z,99.02
2024-02-08T12:41:23.361Z,100.91
2024-02-08T12:42:23.431Z,105.17
2024-02-08T12:43:23.541Z,104.70
2024-02-08T12:44:23.448Z,108.12
2024-02-08T12:45:23.552Z,109.05
2024-02-08T12:46:23.640Z,111.52
2024-02-08T12:47:23.590Z,111.48
2024-02-08T12:48:23.754Z,110.34
2024-02-08T12:49:23.872Z,112.37
2024-02-08T12:50:27.070Z,107.76
2024-02-08T12:51:24.835Z,107.81
2024-02-08T12:52:23.854Z,106.77
2024-02-08T12:53:23.688Z,106.06
2024-02-08T12:54:23.724Z,108.22
2024-02-08T12:55:23.741Z,109.67
2024-02-08T12:56:23.820Z,111.41
2024-02-08T12:57:23.738Z,111.45
2024-02-08T12:58:23.747Z,111.39
2024-02-08T12:59:23.722Z,114.33
2024-02-08T13:00:23.884Z,114.17
2024-02-08T13:01:23.807Z,112.89
2024-02-08T13:02:23.725Z,115.52
2024-02-08T13:03:23.768Z,113.28
2024-02-08T13:04:23.942Z,113.11
2024-02-08T13:05:23.851Z,109.43
2024-02-08T13:06:23.738Z,101.27
2024-02-08T13:07:23.929Z,94.78
2024-02-08T13:08:23.857Z,94.04
2024-02-08T13:09:23.796Z,84.04
2024-02-08T13:10:23.768Z,83.91
2024-02-08T13:11:23.718Z,82.43
2024-02-08T13:12:23.698Z,85.79
2024-02-08T13:13:23.794Z,83.43
2024-02-08T13:14:23.920Z,83.10
2024-02-08T13:15:23.999Z,83.31
2024-02-08T13:16:24.039Z,84.91
2024-02-08T13:17:23.905Z,83.74
2024-02-08T13:18:23.996Z,85.25
2024-02-08T13:19:23.957Z,82.46
2024-02-08T13:20:24.147Z,84.48
2024-02-08T13:21:24.004Z,84.16
2024-02-08T13:22:23.966Z,84.20
2024-02-08T13:23:23.987Z,82.91
2024-02-08T13:24:24.127Z,83.24
2024-02-08T13:25:24.122Z,85.33
2024-02-08T13:26:32.962Z,84.27
2024-02-08T13:27:25.098Z,84.32
2024-02-08T13:28:24.107Z,84.69
2024-02-08T13:29:24.023Z,85.86
2024-02-08T13:30:24.063Z,87.37
2024-02-08T13:31:24.089Z,83.24
2024-02-08T13:32:24.076Z,86.94
2024-02-08T13:33:24.183Z,85.33
2024-02-08T13:34:28.782Z,83.44
2024-02-08T13:35:25.387Z,83.53
2024-02-08T13:36:24.091Z,83.27
2024-02-08T13:37:24.188Z,83.43
2024-02-08T13:38:24.381Z,84.04
2024-02-08T13:39:24.053Z,82.00
2024-02-08T13:40:24.595Z,80.71
2024-02-08T13:41:24.266Z,80.25
2024-02-08T13:42:29.322Z,80.09
2024-02-08T13:43:25.101Z,80.13
2024-02-08T13:44:24.123Z,80.34
2024-02-08T13:45:24.071Z,80.10
2024-02-08T13:46:24.611Z,79.74
2024-02-08T13:47:25.125Z,79.98
2024-02-08T13:48:24.122Z,80.37
2024-02-08T13:49:24.142Z,77.58
2024-02-08T13:50:24.096Z,79.44
2024-02-08T13:51:24.041Z,77.24
2024-02-08T13:52:24.097Z,76.80
2024-02-08T13:53:24.093Z,76.23
2024-02-08T13:54:24.081Z,76.76
2024-02-08T13:55:25.774Z,78.85
2024-02-08T13:56:24.103Z,79.00
2024-02-08T13:57:24.736Z,78.24
2024-02-08T13:58:24.202Z,76.89
2024-02-08T13:59:24.168Z,78.19
2024-02-08T14:00:24.081Z,78.50
2024-02-08T14:01:24.120Z,77.46
2024-02-08T14:02:24.074Z,77.56
2024-02-08T14:03:24.751Z,78.08
2024-02-08T14:04:24.122Z,77.46
2024-02-08T14:05:24.155Z,79.40
2024-02-08T14:06:27.220Z,77.21
2024-02-08T14:07:24.113Z,77.25
2024-02-08T14:08:24.093Z,76.80
2024-02-08T14:09:24.088Z,73.86
2024-02-08T14:10:24.105Z,74.39
2024-02-08T14:11:24.101Z,74.18
2024-02-08T14:12:24.075Z,74.24
2024-02-08T14:13:24.184Z,72.35
2024-02-08T14:14:24.061Z,76.01
2024-02-08T14:15:24.164Z,75.63
2024-02-08T14:16:24.137Z,75.05
2024-02-08T14:17:24.074Z,73.74
2024-02-08T14:18:28.607Z,75.72
2024-02-08T14:19:25.138Z,75.73
2024-02-08T14:20:24.105Z,75.96
2024-02-08T14:21:24.156Z,75.77
2024-02-08T14:22:24.133Z,76.89
2024-02-08T14:23:24.109Z,77.27
2024-02-08T14:24:24.117Z,73.59
2024-02-08T14:25:24.152Z,75.19
2024-02-08T14:26:24.081Z,73.84
2024-02-08T14:27:24.116Z,73.94
2024-02-08T14:28:24.105Z,77.94
2024-02-08T14:29:24.181Z,77.88
2024-02-08T14:30:24.129Z,79.56
2024-02-08T14:31:24.208Z,80.38
2024-02-08T14:32:28.708Z,82.20
2024-02-08T14:33:24.204Z,82.19
2024-02-08T14:34:24.156Z,82.27
2024-02-08T14:35:24.154Z,82.25
2024-02-08T14:36:24.139Z,82.34
2024-02-08T14:37:24.249Z,82.79
2024-02-08T14:38:24.171Z,83.01
2024-02-08T14:39:24.148Z,84.50
2024-02-08T14:40:24.133Z,85.35
2024-02-08T14:41:24.119Z,86.06
2024-02-08T14:42:24.148Z,86.66
2024-02-08T14:43:24.684Z,88.96
2024-02-08T14:44:24.131Z,87.55
2024-02-08T14:45:24.154Z,87.07
2024-02-08T14:46:24.141Z,86.24
2024-02-08T14:47:24.331Z,85.03
2024-02-08T14:48:24.146Z,87.71
2024-02-08T14:49:26.419Z,87.29
2024-02-08T14:50:24.179Z,87.33
2024-02-08T14:51:24.165Z,87.47
2024-02-08T14:52:24.141Z,86.96
2024-02-08T14:53:24.124Z,87.50
2024-02-08T14:54:24.165Z,88.44
2024-02-08T14:55:24.268Z,88.04
2024-02-08T14:56:24.823Z,86.93
2024-02-08T14:57:24.167Z,86.95
2024-02-08T14:58:24.245Z,86.22
2024-02-08T14:59:24.151Z,84.80
2024-02-08T15:00:24.186Z,78.69
2024-02-08T15:01:24.214Z,76.74
2024-02-08T15:02:25.053Z,76.24
2024-02-08T15:03:24.231Z,76.38
2024-02-08T15:04:24.206Z,82.23
2024-02-08T15:05:24.288Z,86.08
2024-02-08T15:06:24.162Z,83.80
2024-02-08T15:07:24.165Z,85.03
2024-02-08T15:08:24.235Z,85.56
2024-02-08T15:09:24.145Z,90.03
2024-02-08T15:10:24.256Z,91.04
2024-02-08T15:11:24.210Z,93.44
2024-02-08T15:12:24.174Z,98.66
2024-02-08T15:13:24.223Z,99.96
2024-02-08T15:14:24.172Z,100.95
2024-02-08T15:15:24.179Z,101.18
2024-02-08T15:16:24.253Z,102.66
2024-02-08T15:17:24.205Z,105.82
2024-02-08T15:18:24.264Z,107.35
2024-02-08T15:19:24.265Z,108.91
2024-02-08T15:20:24.165Z,107.26
2024-02-08T15:21:24.249Z,108.62
2024-02-08T15:22:24.281Z,112.22
2024-02-08T15:23:24.179Z,113.29
2024-02-08T15:24:24.239Z,117.62
2024-02-08T15:25:24.240Z,122.37
2024-02-08T15:26:24.219Z,122.05
2024-02-08T15:27:24.192Z,125.30
2024-02-08T15:28:24.218Z,128.89
2024-02-08T15:29:24.214Z,130.42
2024-02-08T15:30:24.235Z,128.84
2024-02-08T15:31:24.266Z,133.14
2024-02-08T15:32:24.270Z,134.18
2024-02-08T15:33:24.241Z,133.87
2024-02-08T15:34:24.358Z,135.78
2024-02-08T15:35:24.341Z,136.06
2024-02-08T15:36:24.305Z,140.95
2024-02-08T15:37:24.312Z,138.73
2024-02-08T15:38:24.318Z,140.47
2024-02-08T15:39:24.344Z,139.82
2024-02-08T15:40:24.334Z,138.91
2024-02-08T15:41:24.497Z,140.93
2024-02-08T15:42:24.480Z,142.58
2024-02-08T15:43:24.492Z,143.50
2024-02-08T15:44:24.504Z,144.13
2024-02-08T15:45:24.538Z,141.15
2024-02-08T15:46:24.551Z,143.43
2024-02-08T15:47:24.615Z,142.21
2024-02-08T15:48:24.758Z,142.33
2024-02-08T15:49:24.765Z,142.40
2024-02-08T15:50:24.698Z,141.50
2024-02-08T15:51:24.718Z,143.90
2024-02-08T15:52:24.760Z,143.70
2024-02-08T15:53:24.768Z,145.89
2024-02-08T15:54:24.798Z,145.78
2024-02-08T15:55:24.924Z,143.99
2024-02-08T15:56:24.841Z,143.67
2024-02-08T15:57:24.822Z,140.99
2024-02-08T15:58:24.910Z,142.50
2024-02-08T15:59:24.846Z,142.72
2024-02-08T16:00:24.881Z,143.39
2024-02-08T16:01:24.994Z,144.11
2024-02-08T16:02:25.110Z,144.16
2024-02-08T16:03:25.351Z,144.16
2024-02-08T16:04:24.950Z,142.02
2024-02-08T16:05:25.932Z,140.94
2024-02-08T16:06:26.816Z,141.40
2024-02-08T16:07:24.992Z,142.36
2024-02-08T16:08:24.951Z,141.90
2024-02-08T16:09:25.185Z,140.11
2024-02-08T16:10:25.040Z,142.50
2024-02-08T16:11:24.968Z,143.05
2024-02-08T16:12:24.927Z,140.44
2024-02-08T16:13:24.931Z,141.82
2024-02-08T16:14:24.911Z,140.32
2024-02-08T16:15:25.131Z,141.55
2024-02-08T16:16:25.007Z,140.86
2024-02-08T16:17:25.032Z,140.28
2024-02-08T16:18:25.080Z,140.65
2024-02-08T16:19:25.153Z,140.71
2024-02-08T16:20:25.888Z,140.78
2024-02-08T16:21:24.948Z,140.88
2024-02-08T16:22:25.047Z,140.77
2024-02-08T16:23:24.975Z,140.42
2024-02-08T16:24:24.974Z,140.07
2024-02-08T16:25:25.056Z,140.71
2024-02-08T16:26:25.048Z,140.70
2024-02-08T16:27:24.986Z,140.75
2024-02-08T16:28:25.257Z,141.27
2024-02-08T16:29:25.094Z,137.91
2024-02-08T16:30:25.051Z,141.85
2024-02-08T16:31:25.041Z,140.48
2024-02-08T16:32:25.005Z,137.07
2024-02-08T16:33:25.072Z,138.56
2024-02-08T16:34:25.234Z,136.07
2024-02-08T16:35:25.091Z,140.05
2024-02-08T16:36:25.064Z,138.26
2024-02-08T16:37:25.054Z,136.00
2024-02-08T16:38:24.999Z,137.56
2024-02-08T16:39:25.051Z,138.02
2024-02-08T16:40:25.082Z,138.59
2024-02-08T16:41:25.018Z,135.60
2024-02-08T16:42:25.133Z,137.60
2024-02-08T16:43:25.051Z,135.34
2024-02-08T16:44:25.105Z,134.07
2024-02-08T16:45:24.987Z,135.96
2024-02-08T16:46:25.059Z,135.93
2024-02-08T16:47:25.060Z,134.89
2024-02-08T16:48:25.363Z,135.15
2024-02-08T16:49:25.063Z,132.98
2024-02-08T16:50:25.041Z,136.17
2024-02-08T16:51:25.055Z,134.83
2024-02-08T16:52:25.090Z,132.71
2024-02-08T16:53:25.092Z,136.88
2024-02-08T16:54:25.123Z,133.81
2024-02-08T16:55:25.136Z,134.69
2024-02-08T16:56:25.067Z,133.89
2024-02-08T16:57:25.057Z,132.39
2024-02-08T16:58:25.131Z,132.27
2024-02-08T16:59:25.116Z,133.03
2024-02-08T17:00:25.119Z,131.16
2024-02-08T17:01:25.195Z,131.14
2024-02-08T17:02:25.179Z,130.38
2024-02-08T17:03:25.133Z,132.22
2024-02-08T17:04:25.339Z,130.85
2024-02-08T17:05:25.454Z,131.33
2024-02-08T17:06:25.286Z,134.40
2024-02-08T17:07:25.496Z,131.79
2024-02-08T17:08:25.389Z,130.06
2024-02-08T17:09:25.743Z,131.31
2024-02-08T17:10:25.423Z,129.98
2024-02-08T17:11:25.470Z,130.68
2024-02-08T17:12:25.434Z,128.04
2024-02-08T17:13:25.551Z,129.33
2024-02-08T17:14:25.488Z,129.37
2024-02-08T17:15:25.613Z,127.94
2024-02-08T17:16:25.568Z,129.30
2024-02-08T17:17:25.573Z,126.88
2024-02-08T17:18:25.853Z,129.09
2024-02-08T17:19:25.695Z,128.70
2024-02-08T17:20:25.511Z,125.51
2024-02-08T17:21:25.584Z,127.10
2024-02-08T17:22:25.623Z,127.37
2024-02-08T17:23:25.615Z,128.20
2024-02-08T17:24:25.647Z,127.40
2024-02-08T17:25:26.449Z,127.69
2024-02-08T17:26:25.645Z,126.37
2024-02-08T17:27:25.662Z,125.68
2024-02-08T17:28:25.764Z,126.39
2024-02-08T17:29:25.718Z,127.59
2024-02-08T17:30:25.764Z,126.01
2024-02-08T17:31:25.800Z,127.77
2024-02-08T17:32:26.163Z,126.37
2024-02-08T17:33:25.863Z,123.24
2024-02-08T17:34:25.907Z,126.65
2024-02-08T17:35:26.643Z,124.59
2024-02-08T17:36:28.318Z,124.88
2024-02-08T17:37:25.991Z,125.90
2024-02-08T17:38:25.841Z,126.67
2024-02-08T17:39:26.411Z,124.66
2024-02-08T17:40:25.812Z,126.03
2024-02-08T17:41:25.833Z,123.39
2024-02-08T17:42:25.825Z,124.51
2024-02-08T17:43:25.979Z,125.06
2024-02-08T17:44:25.852Z,124.94
2024-02-08T17:45:25.910Z,120.97
2024-02-08T17:46:26.054Z,121.70
2024-02-08T17:47:25.896Z,123.95
2024-02-08T17:48:25.931Z,122.32
2024-02-08T17:49:25.980Z,123.77
2024-02-08T17:50:25.909Z,122.24
2024-02-08T17:51:25.855Z,121.81
2024-02-08T17:52:25.901Z,120.75
2024-02-08T17:53:25.861Z,121.97
2024-02-08T17:54:25.951Z,120.95
2024-02-08T17:55:25.874Z,123.10
2024-02-08T17:56:25.871Z,121.09
2024-02-08T17:57:26.189Z,121.76
2024-02-08T17:58:25.965Z,120.40
2024-02-08T17:59:25.873Z,120.34
2024-02-08T18:00:49.516Z,119.64
